sensor_id;sensor_type;location;lat;lon;timestamp;P1;durP1;ratioP1;P2;durP2;ratioP2
42714;SDS011;28351;51.480;5.706;2023-04-03T00:02:07;6.60;;;4.20;;
42714;SDS011;28351;51.480;5.706;2023-04-03T00:05:16;6.80;;;4.25;;
42714;SDS011;28351;51.480;5.706;2023-04-03T00:07:51;9.10;;;4.13;;
42714;SDS011;28351;51.480;5.706;2023-04-03T00:10:17;7.07;;;4.20;;
42714;SDS011;28351;51.480;5.706;2023-04-03T00:12:43;8.85;;;4.55;;
42714;SDS011;28351;51.480;5.706;2023-04-03T00:15:10;8.10;;;4.00;;
42714;SDS011;28351;51.480;5.706;2023-04-03T00:17:35;9.50;;;4.00;;
42714;SDS011;28351;51.480;5.706;2023-04-03T00:20:02;8.10;;;4.63;;
42714;SDS011;28351;51.480;5.706;2023-04-03T00:22:28;6.97;;;4.03;;
42714;SDS011;28351;51.480;5.706;2023-04-03T00:24:54;7.05;;;4.28;;
42714;SDS011;28351;51.480;5.706;2023-04-03T00:27:20;6.32;;;4.07;;
42714;SDS011;28351;51.480;5.706;2023-04-03T00:29:46;5.43;;;4.38;;
42714;SDS011;28351;51.480;5.706;2023-04-03T00:32:12;7.53;;;4.47;;
42714;SDS011;28351;51.480;5.706;2023-04-03T00:34:39;5.35;;;4.05;;
42714;SDS011;28351;51.480;5.706;2023-04-03T00:37:09;6.22;;;4.10;;
42714;SDS011;28351;51.480;5.706;2023-04-03T00:39:58;5.30;;;3.85;;
42714;SDS011;28351;51.480;5.706;2023-04-03T00:42:26;7.72;;;4.45;;
42714;SDS011;28351;51.480;5.706;2023-04-03T00:47:18;7.93;;;4.35;;
42714;SDS011;28351;51.480;5.706;2023-04-03T00:49:44;5.43;;;3.72;;
42714;SDS011;28351;51.480;5.706;2023-04-03T00:52:15;4.75;;;3.80;;
42714;SDS011;28351;51.480;5.706;2023-04-03T00:54:42;8.57;;;4.90;;
42714;SDS011;28351;51.480;5.706;2023-04-03T00:57:10;6.57;;;4.68;;
42714;SDS011;28351;51.480;5.706;2023-04-03T00:59:42;6.20;;;4.15;;
42714;SDS011;28351;51.480;5.706;2023-04-03T01:02:13;6.63;;;3.88;;
42714;SDS011;28351;51.480;5.706;2023-04-03T01:04:40;7.90;;;4.28;;
42714;SDS011;28351;51.480;5.706;2023-04-03T01:09:42;6.40;;;3.70;;
42714;SDS011;28351;51.480;5.706;2023-04-03T01:12:26;7.20;;;4.27;;
42714;SDS011;28351;51.480;5.706;2023-04-03T01:14:56;6.55;;;4.22;;
42714;SDS011;28351;51.480;5.706;2023-04-03T01:17:26;7.53;;;4.55;;
42714;SDS011;28351;51.480;5.706;2023-04-03T01:28:31;5.00;;;3.95;;
42714;SDS011;28351;51.480;5.706;2023-04-03T01:33:36;7.78;;;4.70;;
42714;SDS011;28351;51.480;5.706;2023-04-03T01:36:09;6.35;;;4.60;;
42714;SDS011;28351;51.480;5.706;2023-04-03T01:38:38;7.05;;;4.43;;
42714;SDS011;28351;51.480;5.706;2023-04-03T01:41:03;9.60;;;4.15;;
42714;SDS011;28351;51.480;5.706;2023-04-03T01:43:29;8.20;;;5.10;;
42714;SDS011;28351;51.480;5.706;2023-04-03T01:45:55;7.68;;;5.05;;
42714;SDS011;28351;51.480;5.706;2023-04-03T01:48:24;9.00;;;4.35;;
42714;SDS011;28351;51.480;5.706;2023-04-03T01:50:53;9.82;;;5.18;;
42714;SDS011;28351;51.480;5.706;2023-04-03T01:53:19;7.15;;;4.72;;
42714;SDS011;28351;51.480;5.706;2023-04-03T01:55:44;6.45;;;4.53;;
42714;SDS011;28351;51.480;5.706;2023-04-03T01:58:10;8.25;;;5.30;;
42714;SDS011;28351;51.480;5.706;2023-04-03T02:01:03;8.13;;;4.50;;
42714;SDS011;28351;51.480;5.706;2023-04-03T02:03:29;12.20;;;4.72;;
42714;SDS011;28351;51.480;5.706;2023-04-03T02:05:55;8.35;;;5.03;;
42714;SDS011;28351;51.480;5.706;2023-04-03T02:08:22;11.65;;;4.95;;
42714;SDS011;28351;51.480;5.706;2023-04-03T02:13:34;9.93;;;5.38;;
42714;SDS011;28351;51.480;5.706;2023-04-03T02:16:24;6.93;;;4.75;;
42714;SDS011;28351;51.480;5.706;2023-04-03T02:18:50;6.45;;;4.50;;
42714;SDS011;28351;51.480;5.706;2023-04-03T02:21:16;8.95;;;4.35;;
42714;SDS011;28351;51.480;5.706;2023-04-03T02:23:41;6.68;;;4.65;;
42714;SDS011;28351;51.480;5.706;2023-04-03T02:26:10;10.13;;;4.82;;
42714;SDS011;28351;51.480;5.706;2023-04-03T02:28:38;8.32;;;4.40;;
42714;SDS011;28351;51.480;5.706;2023-04-03T02:31:12;10.40;;;4.78;;
42714;SDS011;28351;51.480;5.706;2023-04-03T02:33:38;6.20;;;4.43;;
42714;SDS011;28351;51.480;5.706;2023-04-03T02:36:04;8.02;;;5.03;;
42714;SDS011;28351;51.480;5.706;2023-04-03T02:38:31;6.35;;;4.57;;
42714;SDS011;28351;51.480;5.706;2023-04-03T02:41:03;8.70;;;5.18;;
42714;SDS011;28351;51.480;5.706;2023-04-03T02:53:58;8.80;;;4.65;;
42714;SDS011;28351;51.480;5.706;2023-04-03T02:56:24;7.45;;;4.30;;
42714;SDS011;28351;51.480;5.706;2023-04-03T02:58:54;9.35;;;4.57;;
42714;SDS011;28351;51.480;5.706;2023-04-03T03:01:19;9.55;;;5.15;;
42714;SDS011;28351;51.480;5.706;2023-04-03T03:03:45;6.70;;;4.53;;
42714;SDS011;28351;51.480;5.706;2023-04-03T03:06:12;7.95;;;4.93;;
42714;SDS011;28351;51.480;5.706;2023-04-03T03:08:57;6.82;;;4.70;;
42714;SDS011;28351;51.480;5.706;2023-04-03T03:11:23;7.85;;;4.15;;
42714;SDS011;28351;51.480;5.706;2023-04-03T03:13:50;5.78;;;4.30;;
42714;SDS011;28351;51.480;5.706;2023-04-03T03:16:15;7.95;;;5.25;;
42714;SDS011;28351;51.480;5.706;2023-04-03T03:21:10;7.47;;;4.00;;
42714;SDS011;28351;51.480;5.706;2023-04-03T03:23:36;8.30;;;4.60;;
42714;SDS011;28351;51.480;5.706;2023-04-03T03:26:03;8.30;;;4.22;;
42714;SDS011;28351;51.480;5.706;2023-04-03T03:28:31;7.28;;;4.05;;
42714;SDS011;28351;51.480;5.706;2023-04-03T03:30:58;7.38;;;4.28;;
42714;SDS011;28351;51.480;5.706;2023-04-03T03:33:24;7.97;;;4.18;;
42714;SDS011;28351;51.480;5.706;2023-04-03T03:35:54;6.18;;;3.78;;
42714;SDS011;28351;51.480;5.706;2023-04-03T03:38:20;7.95;;;4.18;;
42714;SDS011;28351;51.480;5.706;2023-04-03T03:40:49;8.27;;;4.78;;
42714;SDS011;28351;51.480;5.706;2023-04-03T03:43:15;8.25;;;4.10;;
42714;SDS011;28351;51.480;5.706;2023-04-03T03:45:42;10.25;;;4.25;;
42714;SDS011;28351;51.480;5.706;2023-04-03T03:48:07;6.40;;;4.05;;
42714;SDS011;28351;51.480;5.706;2023-04-03T03:50:33;6.25;;;4.40;;
42714;SDS011;28351;51.480;5.706;2023-04-03T03:52:59;8.70;;;5.00;;
42714;SDS011;28351;51.480;5.706;2023-04-03T03:55:25;6.53;;;3.67;;
42714;SDS011;28351;51.480;5.706;2023-04-03T03:57:51;7.60;;;3.88;;
42714;SDS011;28351;51.480;5.706;2023-04-03T04:00:16;6.30;;;4.32;;
42714;SDS011;28351;51.480;5.706;2023-04-03T04:02:42;8.88;;;4.18;;
42714;SDS011;28351;51.480;5.706;2023-04-03T04:05:08;6.03;;;3.60;;
42714;SDS011;28351;51.480;5.706;2023-04-03T04:07:34;7.53;;;3.80;;
42714;SDS011;28351;51.480;5.706;2023-04-03T04:10:00;9.32;;;4.35;;
42714;SDS011;28351;51.480;5.706;2023-04-03T04:12:28;4.68;;;3.33;;
42714;SDS011;28351;51.480;5.706;2023-04-03T04:14:53;5.70;;;3.92;;
42714;SDS011;28351;51.480;5.706;2023-04-03T04:17:19;6.63;;;3.80;;
42714;SDS011;28351;51.480;5.706;2023-04-03T04:19:45;7.57;;;4.13;;
42714;SDS011;28351;51.480;5.706;2023-04-03T04:22:10;5.80;;;3.85;;
42714;SDS011;28351;51.480;5.706;2023-04-03T04:24:36;7.93;;;3.83;;
42714;SDS011;28351;51.480;5.706;2023-04-03T04:27:05;5.90;;;3.90;;
42714;SDS011;28351;51.480;5.706;2023-04-03T04:29:30;7.47;;;3.70;;
42714;SDS011;28351;51.480;5.706;2023-04-03T04:32:00;9.32;;;3.95;;
42714;SDS011;28351;51.480;5.706;2023-04-03T04:34:27;7.05;;;3.30;;
42714;SDS011;28351;51.480;5.706;2023-04-03T04:36:52;5.47;;;3.42;;
42714;SDS011;28351;51.480;5.706;2023-04-03T04:39:18;7.45;;;3.78;;
42714;SDS011;28351;51.480;5.706;2023-04-03T04:41:44;6.13;;;3.63;;
42714;SDS011;28351;51.480;5.706;2023-04-03T04:44:09;7.47;;;3.55;;
42714;SDS011;28351;51.480;5.706;2023-04-03T04:46:35;4.45;;;3.60;;
42714;SDS011;28351;51.480;5.706;2023-04-03T04:49:07;4.72;;;2.90;;
42714;SDS011;28351;51.480;5.706;2023-04-03T04:51:44;5.20;;;3.22;;
42714;SDS011;28351;51.480;5.706;2023-04-03T04:54:13;5.35;;;2.58;;
42714;SDS011;28351;51.480;5.706;2023-04-03T04:56:43;4.32;;;2.85;;
42714;SDS011;28351;51.480;5.706;2023-04-03T04:59:18;4.30;;;2.60;;
42714;SDS011;28351;51.480;5.706;2023-04-03T05:01:51;3.83;;;2.58;;
42714;SDS011;28351;51.480;5.706;2023-04-03T05:04:26;3.10;;;2.20;;
42714;SDS011;28351;51.480;5.706;2023-04-03T05:06:56;5.22;;;2.28;;
42714;SDS011;28351;51.480;5.706;2023-04-03T05:09:44;4.10;;;2.33;;
42714;SDS011;28351;51.480;5.706;2023-04-03T05:12:10;4.53;;;2.53;;
42714;SDS011;28351;51.480;5.706;2023-04-03T05:14:36;4.68;;;2.58;;
42714;SDS011;28351;51.480;5.706;2023-04-03T05:17:01;3.63;;;2.33;;
42714;SDS011;28351;51.480;5.706;2023-04-03T05:19:27;5.78;;;2.70;;
42714;SDS011;28351;51.480;5.706;2023-04-03T05:21:53;4.50;;;2.28;;
42714;SDS011;28351;51.480;5.706;2023-04-03T05:24:18;3.75;;;2.28;;
42714;SDS011;28351;51.480;5.706;2023-04-03T05:26:44;5.07;;;2.20;;
42714;SDS011;28351;51.480;5.706;2023-04-03T05:29:09;2.95;;;2.35;;
42714;SDS011;28351;51.480;5.706;2023-04-03T05:31:35;3.42;;;2.20;;
42714;SDS011;28351;51.480;5.706;2023-04-03T05:34:01;5.53;;;2.53;;
42714;SDS011;28351;51.480;5.706;2023-04-03T05:36:27;5.47;;;2.83;;
42714;SDS011;28351;51.480;5.706;2023-04-03T05:38:53;4.53;;;2.30;;
42714;SDS011;28351;51.480;5.706;2023-04-03T05:41:21;3.53;;;2.47;;
42714;SDS011;28351;51.480;5.706;2023-04-03T05:43:46;4.60;;;2.20;;
42714;SDS011;28351;51.480;5.706;2023-04-03T05:46:13;5.82;;;2.83;;
42714;SDS011;28351;51.480;5.706;2023-04-03T05:48:43;3.13;;;1.83;;
42714;SDS011;28351;51.480;5.706;2023-04-03T05:51:20;5.85;;;2.58;;
42714;SDS011;28351;51.480;5.706;2023-04-03T05:53:48;3.42;;;1.90;;
42714;SDS011;28351;51.480;5.706;2023-04-03T05:56:17;5.60;;;2.70;;
42714;SDS011;28351;51.480;5.706;2023-04-03T05:58:42;4.22;;;2.08;;
42714;SDS011;28351;51.480;5.706;2023-04-03T06:01:08;4.18;;;1.73;;
42714;SDS011;28351;51.480;5.706;2023-04-03T06:03:34;4.05;;;2.05;;
42714;SDS011;28351;51.480;5.706;2023-04-03T06:06:02;3.70;;;2.20;;
42714;SDS011;28351;51.480;5.706;2023-04-03T06:08:31;4.00;;;2.03;;
42714;SDS011;28351;51.480;5.706;2023-04-03T06:10:58;2.55;;;1.85;;
42714;SDS011;28351;51.480;5.706;2023-04-03T06:13:23;6.28;;;2.05;;
42714;SDS011;28351;51.480;5.706;2023-04-03T06:15:49;5.32;;;2.05;;
42714;SDS011;28351;51.480;5.706;2023-04-03T06:18:14;5.15;;;1.63;;
42714;SDS011;28351;51.480;5.706;2023-04-03T06:20:40;3.22;;;2.13;;
42714;SDS011;28351;51.480;5.706;2023-04-03T06:23:06;6.68;;;2.28;;
42714;SDS011;28351;51.480;5.706;2023-04-03T06:25:32;4.15;;;2.35;;
42714;SDS011;28351;51.480;5.706;2023-04-03T06:27:58;4.38;;;1.90;;
42714;SDS011;28351;51.480;5.706;2023-04-03T06:30:24;3.15;;;2.00;;
42714;SDS011;28351;51.480;5.706;2023-04-03T06:32:50;4.28;;;2.35;;
42714;SDS011;28351;51.480;5.706;2023-04-03T06:35:16;6.57;;;2.15;;
42714;SDS011;28351;51.480;5.706;2023-04-03T06:37:42;4.13;;;1.95;;
42714;SDS011;28351;51.480;5.706;2023-04-03T06:40:11;4.65;;;2.10;;
42714;SDS011;28351;51.480;5.706;2023-04-03T06:42:47;2.97;;;1.63;;
42714;SDS011;28351;51.480;5.706;2023-04-03T06:45:12;2.75;;;2.05;;
42714;SDS011;28351;51.480;5.706;2023-04-03T06:47:38;3.35;;;1.60;;
42714;SDS011;28351;51.480;5.706;2023-04-03T06:50:04;4.20;;;1.50;;
42714;SDS011;28351;51.480;5.706;2023-04-03T06:52:31;4.72;;;1.80;;
42714;SDS011;28351;51.480;5.706;2023-04-03T06:54:57;4.78;;;1.90;;
42714;SDS011;28351;51.480;5.706;2023-04-03T06:57:24;7.55;;;2.10;;
42714;SDS011;28351;51.480;5.706;2023-04-03T06:59:50;6.30;;;2.85;;
42714;SDS011;28351;51.480;5.706;2023-04-03T07:02:16;4.50;;;1.85;;
42714;SDS011;28351;51.480;5.706;2023-04-03T07:04:42;3.53;;;1.83;;
42714;SDS011;28351;51.480;5.706;2023-04-03T07:07:07;2.50;;;1.60;;
42714;SDS011;28351;51.480;5.706;2023-04-03T07:09:33;2.53;;;1.65;;
42714;SDS011;28351;51.480;5.706;2023-04-03T07:11:59;3.05;;;2.13;;
42714;SDS011;28351;51.480;5.706;2023-04-03T07:14:25;4.60;;;1.80;;
42714;SDS011;28351;51.480;5.706;2023-04-03T07:16:50;2.65;;;1.63;;
42714;SDS011;28351;51.480;5.706;2023-04-03T07:19:16;3.58;;;1.77;;
42714;SDS011;28351;51.480;5.706;2023-04-03T07:21:43;4.82;;;1.60;;
42714;SDS011;28351;51.480;5.706;2023-04-03T07:24:09;5.70;;;1.70;;
42714;SDS011;28351;51.480;5.706;2023-04-03T07:26:35;3.40;;;1.55;;
42714;SDS011;28351;51.480;5.706;2023-04-03T07:29:01;5.47;;;1.70;;
42714;SDS011;28351;51.480;5.706;2023-04-03T07:31:27;7.13;;;2.15;;
42714;SDS011;28351;51.480;5.706;2023-04-03T07:33:55;3.50;;;1.38;;
42714;SDS011;28351;51.480;5.706;2023-04-03T07:36:21;4.75;;;1.48;;
42714;SDS011;28351;51.480;5.706;2023-04-03T07:38:49;3.00;;;1.63;;
42714;SDS011;28351;51.480;5.706;2023-04-03T07:41:20;6.72;;;1.83;;
42714;SDS011;28351;51.480;5.706;2023-04-03T07:43:51;3.97;;;2.20;;
42714;SDS011;28351;51.480;5.706;2023-04-03T07:46:26;5.82;;;1.77;;
42714;SDS011;28351;51.480;5.706;2023-04-03T07:48:54;4.97;;;1.58;;
42714;SDS011;28351;51.480;5.706;2023-04-03T07:51:26;5.70;;;1.55;;
42714;SDS011;28351;51.480;5.706;2023-04-03T07:53:55;4.18;;;1.60;;
42714;SDS011;28351;51.480;5.706;2023-04-03T07:56:33;4.78;;;1.60;;
42714;SDS011;28351;51.480;5.706;2023-04-03T07:58:59;4.30;;;1.67;;
42714;SDS011;28351;51.480;5.706;2023-04-03T08:01:25;2.53;;;1.20;;
42714;SDS011;28351;51.480;5.706;2023-04-03T08:03:50;3.90;;;1.50;;
42714;SDS011;28351;51.480;5.706;2023-04-03T08:06:16;3.20;;;1.30;;
42714;SDS011;28351;51.480;5.706;2023-04-03T08:08:42;2.30;;;1.35;;
42714;SDS011;28351;51.480;5.706;2023-04-03T08:11:09;6.85;;;1.20;;
42714;SDS011;28351;51.480;5.706;2023-04-03T08:13:35;3.35;;;1.35;;
42714;SDS011;28351;51.480;5.706;2023-04-03T08:16:08;4.00;;;1.25;;
42714;SDS011;28351;51.480;5.706;2023-04-03T08:18:35;2.08;;;1.20;;
42714;SDS011;28351;51.480;5.706;2023-04-03T08:21:04;2.80;;;1.20;;
42714;SDS011;28351;51.480;5.706;2023-04-03T08:23:30;2.67;;;1.35;;
42714;SDS011;28351;51.480;5.706;2023-04-03T08:25:56;6.72;;;1.70;;
42714;SDS011;28351;51.480;5.706;2023-04-03T08:28:21;1.88;;;1.13;;
42714;SDS011;28351;51.480;5.706;2023-04-03T08:30:47;3.42;;;1.20;;
42714;SDS011;28351;51.480;5.706;2023-04-03T08:33:13;3.88;;;1.35;;
42714;SDS011;28351;51.480;5.706;2023-04-03T08:35:39;2.55;;;1.20;;
42714;SDS011;28351;51.480;5.706;2023-04-03T08:38:06;2.33;;;1.00;;
42714;SDS011;28351;51.480;5.706;2023-04-03T08:40:32;2.25;;;1.05;;
42714;SDS011;28351;51.480;5.706;2023-04-03T08:43:02;5.35;;;1.00;;
42714;SDS011;28351;51.480;5.706;2023-04-03T08:45:45;4.45;;;0.90;;
42714;SDS011;28351;51.480;5.706;2023-04-03T08:48:17;2.30;;;1.05;;
42714;SDS011;28351;51.480;5.706;2023-04-03T08:50:53;2.92;;;1.02;;
42714;SDS011;28351;51.480;5.706;2023-04-03T08:53:25;2.47;;;0.90;;
42714;SDS011;28351;51.480;5.706;2023-04-03T08:55:53;3.85;;;0.80;;
42714;SDS011;28351;51.480;5.706;2023-04-03T08:58:21;1.25;;;0.70;;
42714;SDS011;28351;51.480;5.706;2023-04-03T09:03:44;1.67;;;0.90;;
42714;SDS011;28351;51.480;5.706;2023-04-03T09:06:14;5.82;;;0.90;;
42714;SDS011;28351;51.480;5.706;2023-04-03T09:08:43;1.83;;;0.95;;
42714;SDS011;28351;51.480;5.706;2023-04-03T09:11:23;3.35;;;1.08;;
42714;SDS011;28351;51.480;5.706;2023-04-03T09:13:57;1.13;;;0.70;;
42714;SDS011;28351;51.480;5.706;2023-04-03T09:16:43;2.08;;;1.00;;
42714;SDS011;28351;51.480;5.706;2023-04-03T09:22:02;4.05;;;1.00;;
42714;SDS011;28351;51.480;5.706;2023-04-03T09:24:39;2.78;;;1.00;;
42714;SDS011;28351;51.480;5.706;2023-04-03T09:27:06;3.45;;;0.77;;
42714;SDS011;28351;51.480;5.706;2023-04-03T09:29:38;1.10;;;0.82;;
42714;SDS011;28351;51.480;5.706;2023-04-03T09:32:29;3.90;;;0.90;;
42714;SDS011;28351;51.480;5.706;2023-04-03T09:34:57;2.33;;;0.70;;
42714;SDS011;28351;51.480;5.706;2023-04-03T09:37:41;3.72;;;0.80;;
42714;SDS011;28351;51.480;5.706;2023-04-03T09:40:51;2.20;;;0.70;;
42714;SDS011;28351;51.480;5.706;2023-04-03T09:43:19;1.67;;;0.70;;
42714;SDS011;28351;51.480;5.706;2023-04-03T09:45:48;3.87;;;0.90;;
42714;SDS011;28351;51.480;5.706;2023-04-03T09:50:56;2.45;;;0.70;;
42714;SDS011;28351;51.480;5.706;2023-04-03T09:55:59;0.80;;;0.60;;
42714;SDS011;28351;51.480;5.706;2023-04-03T09:58:33;4.35;;;0.70;;
42714;SDS011;28351;51.480;5.706;2023-04-03T10:01:05;1.65;;;0.70;;
42714;SDS011;28351;51.480;5.706;2023-04-03T10:03:37;2.15;;;0.73;;
42714;SDS011;28351;51.480;5.706;2023-04-03T10:06:04;1.85;;;0.60;;
42714;SDS011;28351;51.480;5.706;2023-04-03T10:09:05;5.25;;;1.35;;
42714;SDS011;28351;51.480;5.706;2023-04-03T10:12:05;0.75;;;0.55;;
42714;SDS011;28351;51.480;5.706;2023-04-03T10:15:17;1.17;;;0.80;;
42714;SDS011;28351;51.480;5.706;2023-04-03T10:17:18;3.05;;;0.80;;
42714;SDS011;28351;51.480;5.706;2023-04-03T10:22:43;1.05;;;0.43;;
42714;SDS011;28351;51.480;5.706;2023-04-03T10:25:40;0.43;;;0.40;;
42714;SDS011;28351;51.480;5.706;2023-04-03T10:28:31;2.40;;;0.55;;
42714;SDS011;28351;51.480;5.706;2023-04-03T10:31:13;0.50;;;0.40;;
42714;SDS011;28351;51.480;5.706;2023-04-03T10:37:18;2.05;;;0.60;;
42714;SDS011;28351;51.480;5.706;2023-04-03T10:56:10;0.85;;;0.57;;
42714;SDS011;28351;51.480;5.706;2023-04-03T10:58:45;0.73;;;0.50;;
42714;SDS011;28351;51.480;5.706;2023-04-03T11:01:20;1.27;;;0.50;;
42714;SDS011;28351;51.480;5.706;2023-04-03T11:03:52;0.93;;;0.47;;
42714;SDS011;28351;51.480;5.706;2023-04-03T11:06:20;1.48;;;0.73;;
42714;SDS011;28351;51.480;5.706;2023-04-03T11:11:24;1.88;;;1.10;;
42714;SDS011;28351;51.480;5.706;2023-04-03T11:14:01;1.42;;;0.60;;
42714;SDS011;28351;51.480;5.706;2023-04-03T11:16:36;2.03;;;0.90;;
42714;SDS011;28351;51.480;5.706;2023-04-03T11:19:20;2.08;;;0.60;;
42714;SDS011;28351;51.480;5.706;2023-04-03T11:22:01;2.05;;;0.70;;
42714;SDS011;28351;51.480;5.706;2023-04-03T11:24:33;1.20;;;0.77;;
42714;SDS011;28351;51.480;5.706;2023-04-03T11:27:04;1.60;;;0.60;;
42714;SDS011;28351;51.480;5.706;2023-04-03T11:29:36;1.45;;;0.63;;
42714;SDS011;28351;51.480;5.706;2023-04-03T11:35:21;2.42;;;0.77;;
42714;SDS011;28351;51.480;5.706;2023-04-03T11:37:50;1.23;;;0.75;;
42714;SDS011;28351;51.480;5.706;2023-04-03T11:40:21;2.65;;;0.70;;
42714;SDS011;28351;51.480;5.706;2023-04-03T11:43:07;1.20;;;0.52;;
42714;SDS011;28351;51.480;5.706;2023-04-03T11:50:59;1.23;;;0.70;;
42714;SDS011;28351;51.480;5.706;2023-04-03T11:53:28;0.95;;;0.68;;
42714;SDS011;28351;51.480;5.706;2023-04-03T11:55:58;2.38;;;0.77;;
42714;SDS011;28351;51.480;5.706;2023-04-03T11:58:27;0.75;;;0.63;;
42714;SDS011;28351;51.480;5.706;2023-04-03T12:03:33;2.05;;;0.60;;
42714;SDS011;28351;51.480;5.706;2023-04-03T12:08:52;1.25;;;0.60;;
42714;SDS011;28351;51.480;5.706;2023-04-03T12:11:23;1.40;;;0.65;;
42714;SDS011;28351;51.480;5.706;2023-04-03T12:16:27;1.63;;;0.73;;
42714;SDS011;28351;51.480;5.706;2023-04-03T12:19:48;1.08;;;0.70;;
42714;SDS011;28351;51.480;5.706;2023-04-03T12:22:04;1.20;;;0.65;;
42714;SDS011;28351;51.480;5.706;2023-04-03T12:24:36;2.55;;;0.80;;
42714;SDS011;28351;51.480;5.706;2023-04-03T12:35:15;3.97;;;0.70;;
42714;SDS011;28351;51.480;5.706;2023-04-03T12:46:12;1.45;;;0.75;;
42714;SDS011;28351;51.480;5.706;2023-04-03T12:48:54;2.83;;;0.98;;
42714;SDS011;28351;51.480;5.706;2023-04-03T12:51:37;2.55;;;0.90;;
42714;SDS011;28351;51.480;5.706;2023-04-03T12:54:29;1.92;;;0.88;;
42714;SDS011;28351;51.480;5.706;2023-04-03T12:59:47;1.02;;;0.63;;
42714;SDS011;28351;51.480;5.706;2023-04-03T13:02:32;2.08;;;0.75;;
42714;SDS011;28351;51.480;5.706;2023-04-03T13:08:24;2.92;;;1.08;;
42714;SDS011;28351;51.480;5.706;2023-04-03T13:11:02;1.48;;;0.90;;
42714;SDS011;28351;51.480;5.706;2023-04-03T13:13:30;3.70;;;0.80;;
42714;SDS011;28351;51.480;5.706;2023-04-03T13:15:56;2.50;;;0.90;;
42714;SDS011;28351;51.480;5.706;2023-04-03T13:18:29;2.78;;;0.98;;
42714;SDS011;28351;51.480;5.706;2023-04-03T13:21:00;1.25;;;0.90;;
42714;SDS011;28351;51.480;5.706;2023-04-03T13:23:48;3.92;;;1.10;;
42714;SDS011;28351;51.480;5.706;2023-04-03T13:26:16;1.60;;;0.90;;
42714;SDS011;28351;51.480;5.706;2023-04-03T13:28:45;2.25;;;0.90;;
42714;SDS011;28351;51.480;5.706;2023-04-03T13:33:39;1.38;;;0.82;;
42714;SDS011;28351;51.480;5.706;2023-04-03T13:37:11;2.35;;;0.90;;
42714;SDS011;28351;51.480;5.706;2023-04-03T13:41:46;1.95;;;1.08;;
42714;SDS011;28351;51.480;5.706;2023-04-03T13:44:40;2.83;;;1.10;;
42714;SDS011;28351;51.480;5.706;2023-04-03T13:52:47;2.58;;;0.90;;
42714;SDS011;28351;51.480;5.706;2023-04-03T13:58:33;3.50;;;0.95;;
42714;SDS011;28351;51.480;5.706;2023-04-03T14:05:53;3.70;;;0.93;;
42714;SDS011;28351;51.480;5.706;2023-04-03T14:08:19;2.63;;;1.08;;
42714;SDS011;28351;51.480;5.706;2023-04-03T14:10:45;2.35;;;0.82;;
42714;SDS011;28351;51.480;5.706;2023-04-03T14:13:15;1.83;;;1.10;;
42714;SDS011;28351;51.480;5.706;2023-04-03T14:15:43;1.25;;;1.00;;
42714;SDS011;28351;51.480;5.706;2023-04-03T14:18:19;2.03;;;1.00;;
42714;SDS011;28351;51.480;5.706;2023-04-03T14:20:46;1.70;;;1.20;;
42714;SDS011;28351;51.480;5.706;2023-04-03T14:23:12;3.08;;;0.98;;
42714;SDS011;28351;51.480;5.706;2023-04-03T14:25:38;1.67;;;0.80;;
42714;SDS011;28351;51.480;5.706;2023-04-03T14:28:19;2.85;;;0.90;;
42714;SDS011;28351;51.480;5.706;2023-04-03T14:30:47;2.47;;;1.00;;
42714;SDS011;28351;51.480;5.706;2023-04-03T14:33:16;2.42;;;1.05;;
42714;SDS011;28351;51.480;5.706;2023-04-03T14:43:22;1.67;;;0.88;;
42714;SDS011;28351;51.480;5.706;2023-04-03T14:45:50;2.03;;;1.00;;
42714;SDS011;28351;51.480;5.706;2023-04-03T14:48:24;1.55;;;0.98;;
42714;SDS011;28351;51.480;5.706;2023-04-03T14:50:52;1.42;;;1.08;;
42714;SDS011;28351;51.480;5.706;2023-04-03T14:53:27;2.15;;;1.00;;
42714;SDS011;28351;51.480;5.706;2023-04-03T14:55:55;2.33;;;1.00;;
42714;SDS011;28351;51.480;5.706;2023-04-03T15:01:28;1.95;;;0.90;;
42714;SDS011;28351;51.480;5.706;2023-04-03T15:04:12;3.53;;;1.00;;
42714;SDS011;28351;51.480;5.706;2023-04-03T15:06:52;4.53;;;1.80;;
42714;SDS011;28351;51.480;5.706;2023-04-03T15:09:27;1.23;;;0.90;;
42714;SDS011;28351;51.480;5.706;2023-04-03T15:11:54;3.58;;;1.30;;
42714;SDS011;28351;51.480;5.706;2023-04-03T15:14:20;2.63;;;1.45;;
42714;SDS011;28351;51.480;5.706;2023-04-03T15:16:57;1.60;;;0.80;;
42714;SDS011;28351;51.480;5.706;2023-04-03T15:19:23;2.60;;;1.00;;
42714;SDS011;28351;51.480;5.706;2023-04-03T15:21:48;1.88;;;0.90;;
42714;SDS011;28351;51.480;5.706;2023-04-03T15:24:17;1.40;;;0.80;;
42714;SDS011;28351;51.480;5.706;2023-04-03T15:29:12;1.75;;;1.10;;
42714;SDS011;28351;51.480;5.706;2023-04-03T15:31:38;2.20;;;1.00;;
42714;SDS011;28351;51.480;5.706;2023-04-03T15:34:03;9.38;;;3.03;;
42714;SDS011;28351;51.480;5.706;2023-04-03T15:36:29;3.75;;;1.30;;
42714;SDS011;28351;51.480;5.706;2023-04-03T15:38:55;3.30;;;1.15;;
42714;SDS011;28351;51.480;5.706;2023-04-03T15:41:20;2.40;;;1.00;;
42714;SDS011;28351;51.480;5.706;2023-04-03T15:43:47;2.78;;;1.20;;
42714;SDS011;28351;51.480;5.706;2023-04-03T15:46:13;5.30;;;1.20;;
42714;SDS011;28351;51.480;5.706;2023-04-03T15:48:38;2.42;;;1.50;;
42714;SDS011;28351;51.480;5.706;2023-04-03T15:51:05;2.60;;;1.10;;
42714;SDS011;28351;51.480;5.706;2023-04-03T15:53:31;2.55;;;0.95;;
42714;SDS011;28351;51.480;5.706;2023-04-03T15:55:59;2.20;;;1.05;;
42714;SDS011;28351;51.480;5.706;2023-04-03T15:58:25;3.63;;;1.30;;
42714;SDS011;28351;51.480;5.706;2023-04-03T16:00:57;2.50;;;1.02;;
42714;SDS011;28351;51.480;5.706;2023-04-03T16:03:23;5.43;;;0.90;;
42714;SDS011;28351;51.480;5.706;2023-04-03T16:05:49;2.80;;;1.00;;
42714;SDS011;28351;51.480;5.706;2023-04-03T16:08:15;3.90;;;1.02;;
42714;SDS011;28351;51.480;5.706;2023-04-03T16:10:42;1.88;;;1.00;;
42714;SDS011;28351;51.480;5.706;2023-04-03T16:13:10;1.23;;;0.77;;
42714;SDS011;28351;51.480;5.706;2023-04-03T16:15:36;6.85;;;0.95;;
42714;SDS011;28351;51.480;5.706;2023-04-03T16:18:02;1.35;;;0.70;;
42714;SDS011;28351;51.480;5.706;2023-04-03T16:20:31;1.92;;;0.95;;
42714;SDS011;28351;51.480;5.706;2023-04-03T16:23:00;1.67;;;0.85;;
42714;SDS011;28351;51.480;5.706;2023-04-03T16:25:26;1.70;;;0.95;;
42714;SDS011;28351;51.480;5.706;2023-04-03T16:27:52;2.60;;;0.80;;
42714;SDS011;28351;51.480;5.706;2023-04-03T16:30:18;3.45;;;0.95;;
42714;SDS011;28351;51.480;5.706;2023-04-03T16:32:43;3.45;;;1.08;;
42714;SDS011;28351;51.480;5.706;2023-04-03T16:35:10;2.47;;;1.08;;
42714;SDS011;28351;51.480;5.706;2023-04-03T16:37:36;3.00;;;1.58;;
42714;SDS011;28351;51.480;5.706;2023-04-03T16:40:02;1.92;;;0.82;;
42714;SDS011;28351;51.480;5.706;2023-04-03T16:42:30;1.87;;;1.00;;
42714;SDS011;28351;51.480;5.706;2023-04-03T16:44:55;3.03;;;0.88;;
42714;SDS011;28351;51.480;5.706;2023-04-03T16:47:21;3.88;;;1.10;;
42714;SDS011;28351;51.480;5.706;2023-04-03T16:49:47;1.83;;;1.02;;
42714;SDS011;28351;51.480;5.706;2023-04-03T16:52:13;2.45;;;0.80;;
42714;SDS011;28351;51.480;5.706;2023-04-03T16:54:39;3.25;;;1.05;;
42714;SDS011;28351;51.480;5.706;2023-04-03T16:57:05;2.67;;;1.10;;
42714;SDS011;28351;51.480;5.706;2023-04-03T16:59:30;3.03;;;1.10;;
42714;SDS011;28351;51.480;5.706;2023-04-03T17:01:57;0.65;;;0.55;;
42714;SDS011;28351;51.480;5.706;2023-04-03T17:04:23;1.70;;;0.90;;
42714;SDS011;28351;51.480;5.706;2023-04-03T17:06:48;2.50;;;1.10;;
42714;SDS011;28351;51.480;5.706;2023-04-03T17:09:16;5.00;;;1.55;;
42714;SDS011;28351;51.480;5.706;2023-04-03T17:11:42;2.53;;;1.20;;
42714;SDS011;28351;51.480;5.706;2023-04-03T17:14:08;2.97;;;1.17;;
42714;SDS011;28351;51.480;5.706;2023-04-03T17:16:39;2.45;;;1.20;;
42714;SDS011;28351;51.480;5.706;2023-04-03T17:19:05;3.33;;;1.20;;
42714;SDS011;28351;51.480;5.706;2023-04-03T17:21:32;3.70;;;1.17;;
42714;SDS011;28351;51.480;5.706;2023-04-03T17:23:59;2.70;;;1.00;;